createdAt,value
2022-12-11T00:02:24.223Z,16.52
2022-12-11T00:05:25.612Z,16.02
2022-12-11T00:08:27.010Z,17.33
2022-12-11T00:11:28.391Z,18.73
2022-12-11T00:14:29.747Z,21.63
2022-12-11T00:17:31.087Z,19.60
2022-12-11T00:20:32.443Z,23.70
2022-12-11T00:23:37.278Z,20.10
2022-12-11T00:29:48.793Z,16.20
2022-12-11T00:36:16.788Z,18.60
2022-12-11T00:42:27.493Z,18.55
2022-12-11T02:54:37.874Z,19.40
2022-12-11T03:01:28.022Z,18.38
2022-12-11T03:04:30.393Z,18.23
2022-12-11T03:10:33.071Z,15.18
2022-12-11T03:13:34.462Z,16.50
2022-12-11T03:31:02.866Z,16.07
2022-12-11T03:37:31.151Z,17.95
2022-12-11T03:47:26.066Z,17.50
2022-12-11T04:00:20.525Z,16.88
2022-12-11T04:06:38.234Z,17.30
2022-12-11T04:13:41.775Z,17.25
2022-12-11T04:23:23.819Z,17.00
2022-12-11T04:29:36.153Z,14.82
2022-12-11T04:32:37.530Z,19.13
2022-12-11T04:35:50.073Z,19.60
2022-12-11T04:42:17.218Z,17.38
2022-12-11T04:45:18.597Z,19.60
2022-12-11T04:51:52.982Z,20.87
2022-12-11T04:54:54.391Z,17.58
2022-12-11T04:57:55.770Z,20.10
2022-12-11T05:04:31.998Z,16.90
2022-12-11T05:07:33.330Z,15.40
2022-12-11T05:14:20.775Z,19.13
2022-12-11T05:17:22.371Z,18.02
2022-12-11T05:20:23.750Z,19.83
2022-12-11T05:23:25.574Z,17.85
2022-12-11T05:32:56.472Z,18.55
2022-12-11T05:35:57.971Z,18.15
2022-12-11T05:39:00.700Z,18.98
2022-12-11T05:42:02.115Z,14.88
2022-12-11T05:45:04.023Z,18.75
2022-12-11T05:48:05.619Z,18.88
2022-12-11T05:54:26.492Z,17.75
2022-12-11T05:57:28.817Z,17.50
2022-12-11T06:00:35.734Z,18.70
2022-12-11T06:06:58.498Z,17.90
2022-12-11T06:09:59.898Z,18.00
2022-12-11T06:13:01.305Z,20.38
2022-12-11T06:16:05.022Z,19.88
2022-12-11T06:19:06.459Z,20.05
2022-12-11T06:25:34.433Z,19.98
2022-12-11T06:28:36.060Z,20.83
2022-12-11T06:31:37.694Z,19.00
2022-12-11T06:38:33.518Z,20.33
2022-12-11T06:41:34.878Z,19.55
2022-12-11T06:44:36.247Z,19.10
2022-12-11T06:51:27.735Z,19.33
2022-12-11T06:54:29.098Z,19.15
2022-12-11T06:57:30.459Z,18.85
2022-12-11T07:00:31.906Z,17.85
2022-12-11T07:03:33.230Z,19.08
2022-12-11T07:06:34.598Z,17.10
2022-12-11T07:09:43.487Z,17.95
2022-12-11T08:17:29.435Z,14.50
2022-12-11T08:51:33.083Z,14.90
2022-12-11T09:08:05.280Z,16.45
2022-12-11T09:14:26.834Z,16.27
2022-12-11T09:17:28.159Z,15.40
2022-12-11T09:20:29.526Z,16.63
2022-12-11T09:23:31.308Z,16.38
2022-12-11T09:33:33.016Z,12.98
2022-12-11T09:36:35.267Z,12.80
2022-12-11T09:42:57.011Z,12.50
2022-12-11T09:46:01.846Z,13.95
2022-12-11T09:49:14.560Z,14.98
2022-12-11T09:59:15.972Z,12.70
2022-12-11T10:19:31.798Z,10.90
2022-12-11T10:22:34.517Z,11.77
2022-12-11T10:32:53.839Z,13.55
2022-12-11T10:35:56.983Z,12.05
2022-12-11T10:38:59.006Z,12.88
2022-12-11T10:48:24.878Z,10.05
2022-12-11T11:01:31.369Z,13.30
2022-12-11T11:18:21.480Z,14.63
2022-12-11T11:21:25.464Z,12.45
2022-12-11T11:24:45.761Z,13.70
2022-12-11T11:45:05.577Z,11.88
2022-12-11T11:55:22.171Z,12.82
2022-12-11T11:58:49.446Z,14.68
2022-12-11T12:01:55.314Z,12.68
2022-12-11T12:04:56.646Z,12.95
2022-12-11T12:08:01.876Z,12.57
2022-12-11T12:15:07.607Z,11.70
2022-12-11T12:18:21.838Z,13.30
2022-12-11T12:21:33.957Z,14.05
2022-12-11T14:16:52.021Z,14.00
2022-12-11T14:19:55.912Z,14.55
2022-12-11T14:23:26.180Z,14.15
2022-12-11T14:26:33.274Z,20.55
2022-12-11T14:29:34.599Z,16.25
2022-12-11T14:32:41.725Z,18.92
2022-12-11T14:35:45.043Z,16.30
2022-12-11T14:42:00.228Z,22.30
2022-12-11T14:45:15.845Z,17.67
2022-12-11T14:48:22.098Z,14.93
2022-12-11T14:51:26.023Z,15.60
2022-12-11T14:54:39.037Z,15.23
2022-12-11T14:57:45.505Z,19.40
2022-12-11T15:01:04.712Z,17.88
2022-12-11T15:04:19.489Z,16.67
2022-12-11T15:07:21.439Z,17.55
2022-12-11T15:10:56.877Z,16.35
2022-12-11T15:14:02.682Z,14.85
2022-12-11T15:17:04.139Z,17.00
2022-12-11T15:20:10.522Z,19.08
2022-12-11T15:23:18.692Z,22.40
2022-12-11T15:26:32.193Z,21.33
2022-12-11T15:29:39.435Z,22.35
2022-12-11T15:32:40.869Z,22.50
2022-12-11T15:35:53.416Z,23.10
2022-12-11T15:38:54.783Z,21.40
2022-12-11T15:41:56.191Z,24.30
2022-12-11T15:44:59.260Z,25.00
2022-12-11T15:48:00.658Z,21.30
2022-12-11T15:51:02.031Z,38.65
2022-12-11T15:54:03.494Z,64.10
2022-12-11T15:57:12.800Z,69.93
2022-12-11T16:00:16.236Z,58.60
2022-12-11T16:06:20.141Z,30.75
2022-12-11T16:09:21.543Z,37.88
2022-12-11T16:12:22.928Z,34.20
2022-12-11T16:15:24.774Z,31.02
2022-12-11T16:18:26.270Z,27.42
2022-12-11T16:21:27.626Z,26.23
2022-12-11T16:24:29.057Z,29.50
2022-12-11T16:27:30.409Z,25.25
2022-12-11T16:30:33.689Z,57.65
2022-12-11T16:36:36.829Z,85.72
2022-12-11T16:39:38.736Z,66.72
2022-12-11T16:42:40.417Z,35.90
2022-12-11T16:45:42.935Z,30.42
2022-12-11T16:48:45.089Z,53.63
2022-12-11T16:51:46.493Z,38.53
2022-12-11T16:54:47.829Z,24.02
2022-12-11T16:57:49.230Z,23.38
2022-12-11T17:00:50.601Z,24.08
2022-12-11T17:03:51.950Z,22.13
2022-12-11T17:06:53.306Z,24.23
2022-12-11T17:09:54.650Z,28.17
2022-12-11T17:12:56.036Z,28.80
2022-12-11T17:15:57.412Z,32.10
2022-12-11T17:18:58.892Z,33.20
2022-12-11T17:22:00.246Z,28.65
2022-12-11T17:25:01.747Z,27.98
2022-12-11T17:28:03.099Z,31.13
2022-12-11T17:31:06.505Z,26.10
2022-12-11T17:34:07.962Z,23.33
2022-12-11T17:37:09.428Z,25.90
2022-12-11T17:40:11.527Z,27.60
2022-12-11T17:43:13.451Z,32.47
2022-12-11T17:46:14.903Z,42.33
2022-12-11T17:49:16.284Z,76.60
2022-12-11T17:52:17.808Z,50.70
2022-12-11T17:55:19.250Z,43.88
2022-12-11T17:58:22.685Z,45.92
2022-12-11T18:04:25.444Z,38.92
2022-12-11T18:07:26.804Z,32.45
2022-12-11T18:10:28.194Z,28.50
2022-12-11T18:13:29.527Z,36.00
2022-12-11T18:16:35.230Z,36.58
2022-12-11T18:19:39.185Z,34.25
2022-12-11T18:22:44.181Z,38.30
2022-12-11T18:25:45.512Z,36.15
2022-12-11T18:28:50.385Z,45.15
2022-12-11T18:31:51.921Z,57.40
2022-12-11T18:34:53.386Z,53.80
2022-12-11T18:37:55.142Z,52.75
2022-12-11T18:40:56.498Z,53.25
2022-12-11T18:44:00.681Z,48.47
2022-12-11T18:47:04.353Z,42.80
2022-12-11T18:50:08.225Z,51.05
2022-12-11T18:53:10.530Z,47.13
2022-12-11T18:56:15.451Z,46.80
2022-12-11T18:59:16.792Z,54.70
2022-12-11T19:02:18.297Z,48.55
2022-12-11T19:05:19.851Z,51.97
2022-12-11T19:08:21.296Z,43.55
2022-12-11T19:11:25.022Z,48.75
2022-12-11T19:14:26.363Z,47.25
2022-12-11T19:17:27.827Z,54.03
2022-12-11T19:20:48.451Z,52.05
2022-12-11T19:23:50.762Z,69.97
2022-12-11T19:26:52.094Z,64.70
2022-12-11T19:29:53.522Z,53.33
2022-12-11T19:32:54.913Z,44.60
2022-12-11T19:36:08.405Z,37.08
2022-12-11T19:39:13.038Z,31.85
2022-12-11T19:42:14.850Z,24.77
2022-12-11T19:45:16.243Z,38.97
2022-12-11T19:48:17.598Z,29.67
2022-12-11T19:51:24.780Z,38.33
2022-12-11T19:54:26.121Z,38.65
2022-12-11T19:57:27.455Z,28.23
2022-12-11T20:00:28.849Z,30.83
2022-12-11T20:03:30.819Z,34.67
2022-12-11T20:06:34.075Z,33.42
2022-12-11T20:09:35.427Z,29.02
2022-12-11T20:12:36.952Z,34.35
2022-12-11T20:15:39.083Z,22.63
2022-12-11T20:18:40.683Z,25.05
2022-12-11T20:21:42.296Z,27.65
2022-12-11T20:24:43.648Z,27.25
2022-12-11T20:27:45.204Z,24.48
2022-12-11T20:30:46.533Z,23.70
2022-12-11T20:33:49.885Z,26.38
2022-12-11T20:36:52.205Z,23.23
2022-12-11T20:39:53.613Z,28.25
2022-12-11T20:42:54.924Z,24.90
2022-12-11T20:45:56.416Z,25.15
2022-12-11T20:48:57.829Z,24.35
2022-12-11T20:51:59.151Z,23.00
2022-12-11T20:55:00.561Z,26.83
2022-12-11T20:58:01.903Z,32.63
2022-12-11T21:01:03.413Z,28.90
2022-12-11T21:04:04.808Z,23.95
2022-12-11T21:07:07.494Z,24.00
2022-12-11T21:10:09.440Z,22.05
2022-12-11T21:13:10.869Z,23.42
2022-12-11T21:16:12.463Z,91.80
2022-12-11T21:19:16.832Z,45.40
2022-12-11T21:22:18.586Z,30.58
2022-12-11T21:25:19.950Z,34.13
2022-12-11T21:28:21.332Z,28.17
2022-12-11T21:31:22.789Z,26.00
2022-12-11T21:34:25.751Z,28.48
2022-12-11T21:37:27.334Z,28.25
2022-12-11T21:40:29.478Z,33.45
2022-12-11T21:43:30.815Z,32.75
2022-12-11T21:46:33.093Z,30.02
2022-12-11T21:49:34.490Z,30.00
2022-12-11T21:52:38.202Z,31.70
2022-12-11T21:55:41.942Z,37.58
2022-12-11T21:58:44.195Z,34.17
2022-12-11T22:01:45.783Z,37.47
2022-12-11T22:04:47.173Z,32.60
2022-12-11T22:07:48.583Z,36.95
2022-12-11T22:10:50.092Z,33.78
2022-12-11T22:13:51.868Z,40.42
2022-12-11T22:16:53.263Z,36.70
2022-12-11T22:19:54.673Z,41.53
2022-12-11T22:22:56.077Z,36.50
2022-12-11T22:25:58.373Z,32.60
2022-12-11T22:28:59.733Z,34.50
2022-12-11T22:32:01.476Z,32.28
2022-12-11T22:35:03.558Z,31.58
2022-12-11T22:38:05.293Z,32.75
2022-12-11T22:41:23.536Z,37.22
2022-12-11T22:44:24.925Z,29.60
2022-12-11T22:47:26.451Z,34.17
2022-12-11T22:50:27.817Z,28.73
2022-12-11T22:53:29.181Z,32.83
2022-12-11T22:56:30.782Z,59.20
2022-12-11T22:59:32.120Z,32.80
2022-12-11T23:02:33.482Z,32.42
2022-12-11T23:05:34.895Z,33.50
2022-12-11T23:08:37.024Z,30.73
2022-12-11T23:11:38.692Z,29.83
2022-12-11T23:14:40.069Z,30.90
2022-12-11T23:17:41.441Z,29.88
2022-12-11T23:20:42.820Z,31.77
2022-12-11T23:23:44.272Z,37.55
2022-12-11T23:26:45.668Z,31.05
2022-12-11T23:29:47.113Z,29.60
2022-12-11T23:32:48.444Z,35.53
2022-12-11T23:35:49.796Z,32.05
2022-12-11T23:38:54.812Z,30.02
2022-12-11T23:41:56.854Z,35.38
2022-12-11T23:44:58.174Z,29.13
2022-12-11T23:47:59.625Z,28.23
2022-12-11T23:51:02.053Z,32.38
2022-12-11T23:54:03.396Z,32.70
2022-12-11T23:57:04.746Z,31.90
